Terminal Aerodrome Forecast
Issued by NWS Cleveland, OH

Home | Current Version | Previous Version | Graphics & Text | Print | Product List | Glossary Off
Versions: 1 2 3 4 5 6 7 8 9 10 11 12 13 14 15 16 17 18 19 20 21 22

456
FTUS41 KCLE 220205 AAA
TAFYNG
TAF AMD
KYNG 220205Z 2202/2224 18005KT 3SM BR OVC006
      TEMPO 2202/2206 1/2SM -RA FG OVC002
     FM220600 15005KT 4SM BR OVC004
      TEMPO 2206/2210 2SM -SHRA BR
     FM221400 17008KT P6SM OVC015
     FM221600 17012KT P6SM BKN035 BKN060=

USA.gov is the U.S. government's official web portal to all federal, state and local government web resources and services.